Time;durP1;ratioP1;P1;durP2;ratioP2;P2;SDS_P1;SDS_P2;PMS_P1;PMS_P2;Temp;Humidity;BMP_temperature;BMP_pressure;BME280_temperature;BME280_humidity;BME280_pressure;Samples;Min_cycle;Max_cycle;Signal;HPM_P1;HPM_P2
2022/05/07 00:01:31;;;;;;;2.05;1.00;;;13.50;71.60;;;;;;5009272;28;20269;-76
2022/05/07 00:03:56;;;;;;;0.93;0.80;;;13.50;71.80;;;;;;5012803;28;20657;-75
2022/05/07 00:06:22;;;;;;;0.93;0.93;;;13.50;71.50;;;;;;5017991;28;20185;-76
2022/05/07 00:08:48;;;;;;;0.68;0.68;;;13.40;72.20;;;;;;5015557;28;20726;-76
2022/05/07 00:11:20;;;;;;;0.75;0.75;;;13.40;72.00;;;;;;5011227;28;20180;-76
2022/05/07 00:13:49;;;;;;;1.63;1.40;;;13.30;71.80;;;;;;5046381;28;20631;-77
2022/05/07 00:19:00;;;;;;;1.23;1.23;;;13.20;71.60;;;;;;5011310;28;20246;-77
2022/05/07 00:21:26;;;;;;;0.95;0.95;;;13.10;71.60;;;;;;5011532;28;20627;-77
2022/05/07 00:23:52;;;;;;;1.30;1.20;;;13.10;71.70;;;;;;5029713;28;20193;-76
2022/05/07 00:26:18;;;;;;;1.73;0.80;;;13.00;71.70;;;;;;5010080;28;20177;-75
2022/05/07 00:28:47;;;;;;;4.55;0.80;;;12.90;71.30;;;;;;5015659;28;20192;-76
2022/05/07 00:31:13;;;;;;;1.25;1.20;;;12.90;71.40;;;;;;5013987;28;20198;-75
2022/05/07 00:33:38;;;;;;;0.70;0.70;;;12.90;71.10;;;;;;5011669;28;20180;-75
2022/05/07 00:36:04;;;;;;;1.48;0.95;;;13.00;71.20;;;;;;5010335;28;20184;-76
2022/05/07 00:38:30;;;;;;;2.63;0.90;;;12.80;71.10;;;;;;5011973;28;20764;-76
2022/05/07 00:40:56;;;;;;;1.25;1.15;;;12.80;71.10;;;;;;5012059;28;20189;-76
2022/05/07 00:43:22;;;;;;;1.13;0.85;;;12.70;70.90;;;;;;5013608;28;20404;-76
2022/05/07 00:45:50;;;;;;;1.23;1.13;;;12.60;71.00;;;;;;5018125;28;20207;-77
2022/05/07 00:48:16;;;;;;;0.82;0.82;;;12.60;71.20;;;;;;5013550;28;20184;-76
2022/05/07 00:53:30;;;;;;;0.82;0.82;;;12.60;71.00;;;;;;5013804;28;20274;-76
2022/05/07 00:55:56;;;;;;;1.15;1.10;;;12.60;70.90;;;;;;5012983;28;20320;-76
2022/05/07 00:58:22;;;;;;;1.25;1.23;;;12.60;70.80;;;;;;5019744;28;20757;-76
2022/05/07 01:00:48;;;;;;;1.40;0.98;;;12.50;70.70;;;;;;5018011;28;20185;-76
2022/05/07 01:03:15;;;;;;;4.25;1.00;;;12.50;70.50;;;;;;5016946;28;20188;-76
2022/05/07 01:05:41;;;;;;;1.15;0.90;;;12.50;70.40;;;;;;5019479;28;20237;-76
2022/05/07 01:08:11;;;;;;;1.55;0.80;;;12.50;70.40;;;;;;5011165;28;20624;-77
2022/05/07 01:10:38;;;;;;;2.53;0.90;;;12.50;70.00;;;;;;5044011;28;20709;-77
2022/05/07 01:13:04;;;;;;;0.70;0.57;;;12.60;70.20;;;;;;5015160;28;20196;-76
2022/05/07 01:15:31;;;;;;;0.55;0.55;;;12.60;70.20;;;;;;5018671;28;20805;-77
2022/05/07 01:17:56;;;;;;;0.90;0.90;;;12.60;70.20;;;;;;5014414;28;20209;-76
2022/05/07 01:20:22;;;;;;;0.80;0.70;;;12.60;70.00;;;;;;5018783;28;20188;-76
2022/05/07 01:22:48;;;;;;;1.10;1.00;;;12.50;69.80;;;;;;5013845;28;20204;-77
2022/05/07 01:25:14;;;;;;;1.05;1.00;;;12.50;69.70;;;;;;5010687;28;20192;-76
2022/05/07 01:27:40;;;;;;;2.80;0.73;;;12.60;70.20;;;;;;5013249;28;20547;-76
2022/05/07 01:30:06;;;;;;;0.65;0.65;;;12.40;69.90;;;;;;5018864;28;20184;-76
2022/05/07 01:32:32;;;;;;;0.70;0.70;;;12.40;70.20;;;;;;5015367;28;20192;-76
2022/05/07 01:34:57;;;;;;;0.52;0.52;;;12.50;70.30;;;;;;5014997;28;20670;-77
2022/05/07 01:37:25;;;;;;;0.52;0.50;;;12.50;70.30;;;;;;5015262;28;20200;-78
2022/05/07 01:39:51;;;;;;;0.77;0.77;;;12.50;70.00;;;;;;5010837;28;20180;-77
2022/05/07 01:42:17;;;;;;;0.68;0.68;;;12.50;70.30;;;;;;5012655;28;20191;-76
2022/05/07 01:44:42;;;;;;;0.77;0.68;;;12.40;70.40;;;;;;5018280;28;20188;-76
2022/05/07 01:49:53;;;;;;;3.83;0.77;;;12.40;70.60;;;;;;5013183;28;20276;-77
2022/05/07 01:52:18;;;;;;;0.95;0.95;;;12.40;70.70;;;;;;5014462;28;20627;-76
2022/05/07 01:54:44;;;;;;;0.60;0.60;;;12.40;70.50;;;;;;5014863;28;20194;-76
2022/05/07 01:57:10;;;;;;;1.00;0.90;;;12.30;70.40;;;;;;5014952;28;20239;-76
2022/05/07 01:59:35;;;;;;;1.30;0.90;;;12.30;70.60;;;;;;5010983;28;21815;-76
2022/05/07 02:02:01;;;;;;;1.73;0.68;;;12.20;70.60;;;;;;5014731;28;20189;-77
2022/05/07 02:04:27;;;;;;;1.95;0.73;;;12.20;70.50;;;;;;5009751;28;20666;-76
2022/05/07 02:06:52;;;;;;;0.65;0.65;;;12.30;70.50;;;;;;5014256;28;20393;-76
2022/05/07 02:09:18;;;;;;;0.70;0.70;;;12.20;70.50;;;;;;5013125;28;20195;-76
2022/05/07 02:11:44;;;;;;;1.20;1.20;;;12.20;70.80;;;;;;5015776;28;20573;-77
2022/05/07 02:14:12;;;;;;;0.80;0.80;;;12.10;70.90;;;;;;5015879;28;20271;-77
2022/05/07 02:16:38;;;;;;;0.93;0.93;;;12.10;70.60;;;;;;5018642;28;20348;-77
2022/05/07 02:19:03;;;;;;;0.70;0.70;;;12.10;70.90;;;;;;5018060;28;20263;-77
2022/05/07 02:21:29;;;;;;;0.50;0.50;;;12.00;70.80;;;;;;5020024;28;20177;-77
2022/05/07 02:23:55;;;;;;;0.68;0.68;;;12.00;71.30;;;;;;5012368;28;20262;-75
2022/05/07 02:26:21;;;;;;;1.90;0.82;;;12.00;71.20;;;;;;5010259;28;20192;-77
2022/05/07 02:28:47;;;;;;;0.80;0.80;;;11.90;71.10;;;;;;5018421;28;20670;-76
2022/05/07 02:31:13;;;;;;;1.00;1.00;;;11.80;71.40;;;;;;5012334;28;20579;-77
2022/05/07 02:33:39;;;;;;;2.60;0.70;;;11.80;71.50;;;;;;5018137;28;20188;-77
2022/05/07 02:36:05;;;;;;;0.90;0.90;;;11.80;71.40;;;;;;5016194;28;20189;-77
2022/05/07 02:38:30;;;;;;;0.55;0.55;;;11.70;71.50;;;;;;5011665;28;20216;-77
2022/05/07 02:43:40;;;;;;;0.60;0.60;;;11.60;71.70;;;;;;5008395;28;20195;-74
2022/05/07 02:46:06;;;;;;;0.65;0.52;;;11.60;71.80;;;;;;5012472;28;20181;-74
2022/05/07 02:48:35;;;;;;;1.02;1.02;;;11.50;71.80;;;;;;5016862;28;20313;-74
2022/05/07 02:51:02;;;;;;;0.73;0.73;;;11.60;71.80;;;;;;5012295;28;20235;-74
2022/05/07 02:53:27;;;;;;;0.93;0.80;;;11.60;72.00;;;;;;5013550;28;20181;-74
2022/05/07 02:55:53;;;;;;;0.70;0.70;;;11.70;71.80;;;;;;5017916;28;20673;-74
2022/05/07 02:58:19;;;;;;;1.95;0.70;;;11.70;72.10;;;;;;5016837;28;20212;-74
2022/05/07 03:00:46;;;;;;;0.90;0.90;;;11.70;71.90;;;;;;5014730;28;20216;-74
2022/05/07 03:03:12;;;;;;;0.52;0.52;;;11.70;71.90;;;;;;5014560;28;20213;-74
2022/05/07 03:05:37;;;;;;;1.55;0.65;;;11.70;71.60;;;;;;5013163;28;20242;-74
2022/05/07 03:08:04;;;;;;;1.80;0.80;;;11.70;71.70;;;;;;5011994;28;20279;-74
2022/05/07 03:10:31;;;;;;;1.40;0.85;;;11.70;71.90;;;;;;5015374;28;20197;-74
2022/05/07 03:12:57;;;;;;;0.75;0.70;;;11.70;71.90;;;;;;5045359;28;20180;-74
2022/05/07 03:15:24;;;;;;;1.02;1.00;;;11.70;71.80;;;;;;5013170;28;20205;-74
2022/05/07 03:17:49;;;;;;;0.80;0.75;;;11.70;72.10;;;;;;5013192;28;20222;-74
2022/05/07 03:20:17;;;;;;;2.20;0.50;;;11.70;72.30;;;;;;5012072;28;20180;-74
2022/05/07 03:22:44;;;;;;;2.35;0.75;;;11.60;72.20;;;;;;5012878;28;20238;-74
2022/05/07 03:25:10;;;;;;;0.82;0.82;;;11.60;72.30;;;;;;5041432;28;20701;-74
2022/05/07 03:27:36;;;;;;;1.27;0.85;;;11.60;72.20;;;;;;5010526;28;20216;-74
2022/05/07 03:30:02;;;;;;;0.82;0.80;;;11.50;72.80;;;;;;5013969;28;20199;-74
2022/05/07 03:32:28;;;;;;;0.80;0.80;;;11.50;72.90;;;;;;5011305;28;20177;-74
2022/05/07 03:34:53;;;;;;;0.98;0.98;;;11.50;73.30;;;;;;5010777;28;20187;-74
2022/05/07 03:37:19;;;;;;;0.70;0.70;;;11.50;73.40;;;;;;5010796;28;20247;-73
2022/05/07 03:39:44;;;;;;;0.82;0.77;;;11.50;73.40;;;;;;5008324;28;20216;-73
2022/05/07 03:42:10;;;;;;;1.10;1.00;;;11.40;73.80;;;;;;5012966;28;20265;-74
2022/05/07 03:44:36;;;;;;;0.98;0.98;;;11.40;73.70;;;;;;5014252;28;20199;-74
2022/05/07 03:47:02;;;;;;;0.90;0.90;;;11.40;73.80;;;;;;5013033;28;20419;-73
2022/05/07 03:49:27;;;;;;;3.70;0.90;;;11.40;73.60;;;;;;5014040;28;20524;-73
2022/05/07 03:54:38;;;;;;;1.20;1.00;;;11.40;74.20;;;;;;5013455;28;20188;-73
2022/05/07 03:57:04;;;;;;;1.57;1.00;;;11.40;74.30;;;;;;5011986;28;20216;-74
2022/05/07 03:59:29;;;;;;;1.10;1.10;;;11.30;74.50;;;;;;5013742;28;20184;-73
2022/05/07 04:01:55;;;;;;;1.05;1.05;;;11.40;75.00;;;;;;5015882;28;20188;-73
2022/05/07 04:04:21;;;;;;;1.58;0.98;;;11.40;75.10;;;;;;5011362;28;20181;-74
2022/05/07 04:06:48;;;;;;;1.30;1.17;;;11.40;75.10;;;;;;5015169;28;20180;-73
2022/05/07 04:09:14;;;;;;;10.15;1.00;;;11.30;75.50;;;;;;5022665;28;20181;-73
2022/05/07 04:11:40;;;;;;;5.30;1.00;;;11.30;75.60;;;;;;5010780;28;20889;-73
2022/05/07 04:14:06;;;;;;;1.13;1.08;;;11.30;75.80;;;;;;5010270;28;20946;-74
2022/05/07 04:16:32;;;;;;;1.07;0.80;;;11.40;75.50;;;;;;5018425;28;20199;-74
2022/05/07 04:18:57;;;;;;;2.67;0.90;;;11.40;75.20;;;;;;5011039;28;20177;-74
2022/05/07 04:21:23;;;;;;;0.95;0.90;;;11.40;75.00;;;;;;5011016;28;20266;-74
2022/05/07 04:23:49;;;;;;;0.80;0.80;;;11.40;74.70;;;;;;5011258;28;20180;-74
2022/05/07 04:26:15;;;;;;;4.53;0.65;;;11.40;74.60;;;;;;5016035;28;20202;-73
2022/05/07 04:28:41;;;;;;;0.70;0.70;;;11.50;74.70;;;;;;5014500;28;20682;-73
2022/05/07 04:31:06;;;;;;;0.80;0.80;;;11.50;74.70;;;;;;5017131;28;20186;-74
2022/05/07 04:33:32;;;;;;;1.05;1.05;;;11.60;74.30;;;;;;5019126;28;20184;-75
2022/05/07 04:35:58;;;;;;;1.08;0.75;;;11.70;74.30;;;;;;5017046;28;20215;-74
2022/05/07 04:38:23;;;;;;;1.63;0.80;;;11.80;74.70;;;;;;5018588;28;20226;-74
2022/05/07 04:40:49;;;;;;;4.55;1.33;;;11.80;74.20;;;;;;5016386;28;20184;-73
2022/05/07 04:43:17;;;;;;;0.65;0.65;;;11.90;74.00;;;;;;5016906;28;20208;-74
2022/05/07 04:45:43;;;;;;;1.13;0.88;;;12.00;74.00;;;;;;5015227;28;20192;-74
2022/05/07 04:48:09;;;;;;;1.48;0.77;;;12.00;73.90;;;;;;5011751;28;20188;-75
2022/05/07 04:50:34;;;;;;;1.08;0.98;;;12.10;73.80;;;;;;5022789;28;20180;-76
2022/05/07 04:53:01;;;;;;;2.55;1.10;;;12.20;74.00;;;;;;5014595;28;20180;-75
2022/05/07 04:55:27;;;;;;;1.58;1.13;;;12.20;73.70;;;;;;5021451;28;20636;-76
2022/05/07 04:57:52;;;;;;;1.10;1.10;;;12.30;73.80;;;;;;5026418;28;20253;-76
2022/05/07 05:00:18;;;;;;;1.33;1.23;;;12.30;74.00;;;;;;5019400;28;20249;-76
2022/05/07 05:02:44;;;;;;;2.65;1.40;;;12.40;74.30;;;;;;5009750;28;20184;-76
2022/05/07 05:05:10;;;;;;;1.75;1.65;;;12.40;74.30;;;;;;5014994;28;20235;-75
2022/05/07 05:07:35;;;;;;;2.28;1.45;;;12.50;74.00;;;;;;5013613;28;20180;-74
2022/05/07 05:10:04;;;;;;;1.10;1.10;;;12.50;73.90;;;;;;5014562;28;20185;-75
2022/05/07 05:12:30;;;;;;;1.33;1.30;;;12.50;73.90;;;;;;5018690;28;20260;-75
2022/05/07 05:15:01;;;;;;;2.35;1.30;;;12.60;74.00;;;;;;5020652;28;20318;-75
2022/05/07 05:17:27;;;;;;;5.05;1.13;;;12.70;74.00;;;;;;5010275;28;20209;-75
2022/05/07 05:19:53;;;;;;;1.27;1.17;;;12.70;74.00;;;;;;5016972;28;20184;-76
2022/05/07 05:22:19;;;;;;;1.00;1.00;;;12.80;73.90;;;;;;5014517;28;20234;-75
2022/05/07 05:24:45;;;;;;;0.82;0.82;;;12.80;73.90;;;;;;5015411;28;20662;-75
2022/05/07 05:27:11;;;;;;;2.17;1.23;;;12.90;73.60;;;;;;5016315;28;20181;-76
2022/05/07 05:29:36;;;;;;;1.77;1.35;;;12.90;73.80;;;;;;5020054;28;20180;-76
2022/05/07 05:32:03;;;;;;;1.27;1.27;;;13.00;74.30;;;;;;5018797;28;20913;-76
2022/05/07 05:34:28;;;;;;;1.17;1.17;;;13.00;73.70;;;;;;5019705;28;20177;-75
2022/05/07 05:36:54;;;;;;;2.83;1.17;;;13.00;73.80;;;;;;5017012;28;20733;-75
2022/05/07 05:39:20;;;;;;;2.28;1.35;;;13.10;73.40;;;;;;5017755;28;20566;-75
2022/05/07 05:41:45;;;;;;;1.52;1.25;;;13.10;73.60;;;;;;5019061;28;20196;-75
2022/05/07 05:44:11;;;;;;;1.23;1.23;;;13.10;73.60;;;;;;5014031;28;20184;-74
2022/05/07 05:46:38;;;;;;;1.02;1.02;;;13.10;73.60;;;;;;5013132;28;20876;-74
2022/05/07 05:49:04;;;;;;;3.63;1.65;;;13.20;73.70;;;;;;5011813;28;20181;-74
2022/05/07 05:51:29;;;;;;;1.13;1.02;;;13.20;73.60;;;;;;5012639;28;20314;-72
2022/05/07 05:53:55;;;;;;;1.20;1.10;;;13.20;73.60;;;;;;5016064;28;20180;-73
2022/05/07 05:56:21;;;;;;;1.35;1.20;;;13.30;73.40;;;;;;5010778;28;20203;-73
2022/05/07 05:58:47;;;;;;;1.25;1.15;;;13.40;73.50;;;;;;5015814;28;20262;-73
2022/05/07 06:01:13;;;;;;;1.25;1.15;;;13.40;73.40;;;;;;5012764;28;20230;-74
2022/05/07 06:03:39;;;;;;;1.15;1.15;;;13.50;73.30;;;;;;5009208;28;20177;-73
2022/05/07 06:06:05;;;;;;;3.67;1.13;;;13.60;73.30;;;;;;5014861;28;20193;-73
2022/05/07 06:08:31;;;;;;;1.48;1.05;;;13.60;73.10;;;;;;5011486;28;20214;-74
2022/05/07 06:10:57;;;;;;;1.38;1.20;;;13.60;72.70;;;;;;5017008;28;20185;-73
2022/05/07 06:13:24;;;;;;;1.63;1.50;;;13.70;72.90;;;;;;5011862;28;20780;-74
2022/05/07 06:15:54;;;;;;;3.10;1.33;;;13.70;73.30;;;;;;5008180;28;20178;-73
2022/05/07 06:18:22;;;;;;;1.27;1.27;;;13.80;73.30;;;;;;5039934;28;20247;-73
2022/05/07 06:20:49;;;;;;;2.03;1.20;;;13.80;73.40;;;;;;5012639;28;20180;-76
2022/05/07 06:23:18;;;;;;;1.38;1.00;;;13.80;72.80;;;;;;5010626;28;20274;-76
2022/05/07 06:28:28;;;;;;;1.55;1.35;;;14.00;73.30;;;;;;5014292;28;20693;-75
2022/05/07 06:30:54;;;;;;;1.30;1.30;;;14.10;72.50;;;;;;5007659;28;20216;-75
2022/05/07 06:33:20;;;;;;;2.03;1.65;;;14.20;72.70;;;;;;5009144;28;20914;-74
2022/05/07 06:35:49;;;;;;;2.72;1.50;;;14.30;72.80;;;;;;5012338;28;20262;-75
2022/05/07 06:38:16;;;;;;;1.88;1.77;;;14.40;72.70;;;;;;5009782;28;20243;-75
2022/05/07 06:40:42;;;;;;;2.22;1.45;;;14.50;72.50;;;;;;5013902;28;20296;-75
2022/05/07 06:43:08;;;;;;;1.42;1.42;;;14.50;72.00;;;;;;5011695;28;20193;-75
2022/05/07 06:45:34;;;;;;;2.55;1.52;;;14.60;72.50;;;;;;5010211;28;20256;-75
2022/05/07 06:48:00;;;;;;;1.30;1.20;;;14.70;71.60;;;;;;5008262;28;20659;-75
2022/05/07 06:50:26;;;;;;;3.17;1.23;;;14.70;72.00;;;;;;5013619;28;20187;-76
2022/05/07 06:52:53;;;;;;;1.55;1.45;;;14.80;72.50;;;;;;5011202;28;20181;-75
2022/05/07 06:55:19;;;;;;;1.67;1.58;;;14.90;72.80;;;;;;5011723;28;20189;-73
2022/05/07 06:57:46;;;;;;;1.85;1.63;;;14.90;71.80;;;;;;5013509;28;20217;-73
2022/05/07 07:00:14;;;;;;;3.17;1.33;;;15.00;71.50;;;;;;5023184;28;20188;-73
2022/05/07 07:02:41;;;;;;;2.05;1.60;;;15.10;72.00;;;;;;5011057;28;21013;-73
2022/05/07 07:05:08;;;;;;;1.88;1.77;;;15.20;72.00;;;;;;5011302;28;20189;-73
2022/05/07 07:07:34;;;;;;;1.50;1.40;;;15.30;72.10;;;;;;5025586;28;20191;-74
2022/05/07 07:10:00;;;;;;;3.65;2.10;;;15.30;70.70;;;;;;5014876;28;20184;-73
2022/05/07 07:12:26;;;;;;;2.42;1.58;;;15.40;70.20;;;;;;5014509;28;20181;-73
2022/05/07 07:14:51;;;;;;;1.48;1.38;;;15.50;70.90;;;;;;5016650;28;20180;-74
2022/05/07 07:17:17;;;;;;;1.42;1.42;;;15.50;71.50;;;;;;5012868;28;20319;-74
2022/05/07 07:19:44;;;;;;;6.15;1.60;;;15.60;70.70;;;;;;5010830;28;20322;-74
2022/05/07 07:22:10;;;;;;;1.45;1.45;;;15.70;70.40;;;;;;5003579;28;20181;-73
2022/05/07 07:24:36;;;;;;;2.30;1.20;;;15.70;69.90;;;;;;5010373;28;20188;-75
2022/05/07 07:27:03;;;;;;;1.58;1.55;;;15.80;70.50;;;;;;5015817;28;20192;-75
2022/05/07 07:29:29;;;;;;;1.98;1.88;;;15.80;69.40;;;;;;5008981;28;20179;-74
2022/05/07 07:31:55;;;;;;;6.03;2.00;;;15.90;69.60;;;;;;5010608;28;20184;-75
2022/05/07 07:34:23;;;;;;;1.77;1.67;;;16.00;70.20;;;;;;5011030;28;20234;-73
2022/05/07 07:36:53;;;;;;;1.45;1.35;;;16.20;70.10;;;;;;5009449;28;20960;-73
2022/05/07 07:39:19;;;;;;;2.78;1.48;;;16.40;69.10;;;;;;5016125;28;20190;-75
2022/05/07 07:41:45;;;;;;;1.63;1.52;;;16.50;69.00;;;;;;5039840;28;20586;-72
2022/05/07 07:44:11;;;;;;;1.55;1.45;;;16.60;69.30;;;;;;5006695;28;20184;-73
2022/05/07 07:49:22;;;;;;;2.08;1.98;;;16.90;68.80;;;;;;5009582;28;20277;-75
2022/05/07 07:51:48;;;;;;;1.77;1.67;;;17.20;68.50;;;;;;5004725;28;21003;-74
2022/05/07 07:54:14;;;;;;;1.70;1.60;;;17.40;66.70;;;;;;5006580;28;20189;-72
2022/05/07 07:56:43;;;;;;;2.17;2.03;;;17.50;67.40;;;;;;5013762;28;20628;-72
2022/05/07 07:59:11;;;;;;;1.77;1.50;;;17.70;67.70;;;;;;5008528;28;20181;-72
2022/05/07 08:01:37;;;;;;;2.97;1.75;;;17.80;67.10;;;;;;5015157;28;20180;-74
2022/05/07 08:04:04;;;;;;;1.88;1.73;;;18.00;67.60;;;;;;5007926;28;20188;-72
2022/05/07 08:06:31;;;;;;;1.38;1.27;;;18.10;67.10;;;;;;5005949;28;20177;-72
2022/05/07 08:11:49;;;;;;;3.22;1.42;;;18.40;66.30;;;;;;4983173;28;20189;-72
2022/05/07 08:14:15;;;;;;;2.58;1.40;;;18.60;66.10;;;;;;4984297;28;20197;-73
2022/05/07 08:16:44;;;;;;;1.60;1.45;;;18.70;65.40;;;;;;4981819;28;20228;-73
2022/05/07 08:19:12;;;;;;;1.50;1.45;;;18.80;64.60;;;;;;4988272;28;20336;-73
2022/05/07 08:21:37;;;;;;;3.35;1.70;;;18.80;64.70;;;;;;4988485;28;20270;-71
2022/05/07 08:24:03;;;;;;;1.48;1.40;;;19.00;65.40;;;;;;4989384;28;20631;-71
2022/05/07 08:26:29;;;;;;;2.08;1.92;;;19.20;64.60;;;;;;4994560;28;20177;-71
2022/05/07 08:28:55;;;;;;;1.40;1.40;;;19.30;63.60;;;;;;4985571;28;20189;-73
2022/05/07 08:31:24;;;;;;;1.20;1.20;;;19.20;62.60;;;;;;4988272;28;20182;-70
2022/05/07 08:33:51;;;;;;;2.35;1.20;;;19.30;63.90;;;;;;4988451;28;20647;-70
2022/05/07 08:36:17;;;;;;;2.90;1.48;;;19.40;63.40;;;;;;4989468;28;20251;-71
2022/05/07 08:38:43;;;;;;;3.83;1.50;;;19.50;63.00;;;;;;4988744;28;20224;-71
2022/05/07 08:41:10;;;;;;;1.40;1.30;;;19.60;63.50;;;;;;4993429;28;20205;-71
2022/05/07 08:43:40;;;;;;;2.75;1.75;;;19.70;63.10;;;;;;4986178;28;20217;-71
2022/05/07 08:46:12;;;;;;;1.48;1.48;;;19.80;63.30;;;;;;4988798;28;20291;-71
2022/05/07 08:48:40;;;;;;;1.30;1.30;;;19.90;61.60;;;;;;4995984;28;20254;-72
2022/05/07 08:51:06;;;;;;;1.50;1.50;;;19.90;62.30;;;;;;5011506;28;20180;-72
2022/05/07 08:53:32;;;;;;;1.23;1.15;;;19.90;62.40;;;;;;5006100;28;20173;-75
2022/05/07 08:55:57;;;;;;;1.17;1.17;;;20.00;61.30;;;;;;5010918;28;20259;-73
2022/05/07 08:58:23;;;;;;;1.90;1.80;;;20.00;61.50;;;;;;5007529;28;20267;-71
2022/05/07 09:00:49;;;;;;;1.50;1.40;;;20.00;62.20;;;;;;5009712;28;20185;-72
2022/05/07 09:03:16;;;;;;;2.28;1.45;;;20.00;62.30;;;;;;5009313;28;20289;-72
2022/05/07 09:05:42;;;;;;;1.40;1.40;;;20.10;61.90;;;;;;5011014;28;20328;-72
2022/05/07 09:08:10;;;;;;;1.40;1.40;;;20.20;61.30;;;;;;5008701;28;20199;-73
2022/05/07 09:10:38;;;;;;;1.33;1.33;;;20.30;61.60;;;;;;5008310;28;20769;-72
2022/05/07 09:13:10;;;;;;;1.20;1.20;;;20.30;61.40;;;;;;5002364;28;20188;-74
2022/05/07 09:15:49;;;;;;;1.38;1.38;;;20.40;61.10;;;;;;5007208;28;20858;-74
2022/05/07 09:18:17;;;;;;;1.40;1.30;;;20.50;60.70;;;;;;5009410;28;20218;-74
2022/05/07 09:20:42;;;;;;;1.23;1.23;;;20.60;60.90;;;;;;5010271;28;20208;-74
2022/05/07 09:23:10;;;;;;;1.80;1.70;;;20.60;60.50;;;;;;5009188;28;20643;-74
2022/05/07 09:25:48;;;;;;;1.08;1.08;;;20.70;60.00;;;;;;5012003;28;20183;-73
2022/05/07 09:28:27;;;;;;;1.20;1.20;;;20.90;59.70;;;;;;5013074;28;20184;-74
2022/05/07 09:30:56;;;;;;;1.38;1.38;;;21.00;58.70;;;;;;5015728;28;20284;-74
2022/05/07 09:33:35;;;;;;;2.80;1.20;;;21.20;58.60;;;;;;5015370;28;20275;-73
2022/05/07 09:36:13;;;;;;;1.42;1.42;;;21.40;57.40;;;;;;5013791;28;20196;-74
2022/05/07 09:38:39;;;;;;;3.08;1.30;;;21.70;56.60;;;;;;5014633;28;20297;-73
2022/05/07 09:41:06;;;;;;;1.63;1.38;;;21.80;57.60;;;;;;5014746;28;20679;-74
2022/05/07 09:43:32;;;;;;;1.30;1.30;;;22.10;56.30;;;;;;5018216;28;20290;-73
2022/05/07 09:45:58;;;;;;;1.10;1.10;;;22.40;55.90;;;;;;5015599;28;20192;-74
2022/05/07 09:48:24;;;;;;;1.50;1.40;;;22.60;55.40;;;;;;5009775;28;20188;-74
2022/05/07 09:50:50;;;;;;;2.80;1.27;;;22.80;55.90;;;;;;5009361;28;20715;-75
2022/05/07 09:58:49;;;;;;;1.95;1.30;;;23.50;55.50;;;;;;5012591;28;20663;-74
2022/05/07 10:01:20;;;;;;;1.15;1.13;;;23.80;55.80;;;;;;5016449;28;20239;-73
2022/05/07 10:04:06;;;;;;;1.50;1.40;;;24.00;54.40;;;;;;5009214;28;20644;-73
2022/05/07 10:06:50;;;;;;;2.63;1.27;;;24.50;53.10;;;;;;5010709;28;20173;-73
2022/05/07 10:09:40;;;;;;;3.75;1.13;;;25.00;51.30;;;;;;5011081;28;20181;-73
2022/05/07 10:12:08;;;;;;;4.57;1.08;;;25.50;52.40;;;;;;5013968;28;20288;-72
2022/05/07 10:14:33;;;;;;;1.38;1.27;;;26.10;51.40;;;;;;5014068;28;20185;-74
2022/05/07 10:17:11;;;;;;;0.93;0.93;;;26.70;50.10;;;;;;5011742;28;20222;-74
2022/05/07 10:19:45;;;;;;;1.23;1.23;;;27.10;49.00;;;;;;5017468;28;20364;-74
2022/05/07 10:22:21;;;;;;;1.48;1.38;;;27.40;49.20;;;;;;5047867;28;20204;-73
2022/05/07 10:24:50;;;;;;;0.90;0.90;;;27.90;47.80;;;;;;5016317;28;20726;-73
2022/05/07 10:27:29;;;;;;;1.00;0.95;;;28.30;46.90;;;;;;5014239;28;20192;-73
2022/05/07 10:30:03;;;;;;;1.80;1.27;;;28.70;46.60;;;;;;5010078;28;20176;-74
2022/05/07 10:32:29;;;;;;;1.30;1.30;;;29.10;46.60;;;;;;5011625;28;20738;-74
2022/05/07 10:34:56;;;;;;;1.10;1.10;;;29.20;47.50;;;;;;5012798;28;20182;-74
2022/05/07 10:37:22;;;;;;;0.98;0.98;;;29.00;45.40;;;;;;5014583;28;20200;-74
2022/05/07 10:39:54;;;;;;;1.23;1.15;;;28.50;45.60;;;;;;5013273;28;20211;-74
2022/05/07 10:42:21;;;;;;;2.33;1.13;;;28.50;47.70;;;;;;5006428;28;20208;-74
2022/05/07 10:44:48;;;;;;;1.30;1.30;;;28.50;47.10;;;;;;5039125;28;20572;-73
2022/05/07 10:47:16;;;;;;;1.38;1.05;;;28.50;47.60;;;;;;5019588;28;20184;-73
2022/05/07 10:50:06;;;;;;;1.20;1.10;;;28.70;46.20;;;;;;5048065;28;20185;-74
2022/05/07 10:52:34;;;;;;;2.13;1.08;;;28.90;46.40;;;;;;5016315;28;20184;-74
2022/05/07 10:55:11;;;;;;;2.60;1.00;;;29.10;45.40;;;;;;5014475;28;20176;-74
2022/05/07 10:57:42;;;;;;;1.05;1.05;;;29.30;43.30;;;;;;5007010;28;20205;-74
2022/05/07 11:00:17;;;;;;;5.35;1.10;;;29.20;44.40;;;;;;5012945;28;20181;-74
2022/05/07 11:02:45;;;;;;;0.90;0.90;;;29.20;43.60;;;;;;5011183;28;20211;-73
2022/05/07 11:05:11;;;;;;;0.90;0.90;;;29.30;45.40;;;;;;5008412;28;20584;-74
2022/05/07 11:07:39;;;;;;;1.00;1.00;;;29.00;45.30;;;;;;5007009;28;20697;-74
2022/05/07 11:10:05;;;;;;;1.23;1.15;;;28.80;43.60;;;;;;5009188;28;20218;-74
2022/05/07 11:12:30;;;;;;;0.90;0.90;;;27.90;44.30;;;;;;5009945;28;20529;-74
2022/05/07 11:14:56;;;;;;;1.00;1.00;;;27.30;46.20;;;;;;5013121;28;20250;-73
2022/05/07 11:17:32;;;;;;;1.45;1.20;;;26.60;45.00;;;;;;5007330;28;20213;-73
2022/05/07 11:19:58;;;;;;;1.75;1.05;;;26.20;46.40;;;;;;5012818;28;20183;-73
2022/05/07 11:22:30;;;;;;;1.15;0.95;;;26.10;46.80;;;;;;5009804;28;20173;-73
2022/05/07 11:25:05;;;;;;;1.85;1.02;;;26.10;45.80;;;;;;5010052;28;20204;-74
2022/05/07 11:27:34;;;;;;;1.80;0.90;;;26.20;46.80;;;;;;5012583;28;20274;-73
2022/05/07 11:30:03;;;;;;;0.85;0.85;;;26.60;44.00;;;;;;5008355;28;20177;-73
2022/05/07 11:32:42;;;;;;;4.53;0.63;;;26.90;43.80;;;;;;5011117;28;20180;-74
2022/05/07 11:35:09;;;;;;;2.20;0.52;;;27.40;38.80;;;;;;5013649;28;20192;-73
2022/05/07 11:37:40;;;;;;;0.60;0.60;;;27.80;39.10;;;;;;5011684;28;20269;-73
2022/05/07 11:40:07;;;;;;;1.30;0.52;;;28.20;38.30;;;;;;5007011;28;20658;-73
2022/05/07 11:42:46;;;;;;;0.80;0.80;;;28.50;39.80;;;;;;5008646;28;20176;-73
2022/05/07 11:45:26;;;;;;;0.90;0.60;;;28.90;40.80;;;;;;5007711;28;20177;-73
2022/05/07 11:47:56;;;;;;;2.58;0.85;;;29.40;40.70;;;;;;5013809;28;20317;-74
2022/05/07 11:50:24;;;;;;;0.82;0.82;;;29.80;40.70;;;;;;5011156;28;20185;-75
2022/05/07 11:52:51;;;;;;;2.03;0.80;;;29.70;39.60;;;;;;5009292;28;21845;-72
2022/05/07 11:55:31;;;;;;;1.60;0.82;;;29.70;40.90;;;;;;5007768;28;20173;-71
2022/05/07 11:57:57;;;;;;;0.73;0.73;;;29.70;41.10;;;;;;5014379;28;20214;-71
2022/05/07 12:00:26;;;;;;;1.00;1.00;;;29.60;42.20;;;;;;5012127;28;20741;-74
2022/05/07 12:02:55;;;;;;;1.38;0.73;;;29.50;40.10;;;;;;5011935;28;20188;-73
2022/05/07 12:05:22;;;;;;;1.50;0.82;;;29.50;41.10;;;;;;5015047;28;20176;-74
2022/05/07 12:07:49;;;;;;;1.40;1.10;;;29.40;40.40;;;;;;5015640;28;20184;-72
2022/05/07 12:10:21;;;;;;;1.05;0.98;;;29.40;40.70;;;;;;5012646;28;20235;-72
2022/05/07 12:12:48;;;;;;;4.25;0.65;;;29.40;40.30;;;;;;5013721;28;20184;-72
2022/05/07 12:15:14;;;;;;;0.70;0.70;;;29.40;41.70;;;;;;5009668;28;20184;-74
2022/05/07 12:17:52;;;;;;;1.23;0.65;;;29.40;38.90;;;;;;5010494;28;20205;-74
2022/05/07 12:20:22;;;;;;;1.77;0.80;;;29.30;39.00;;;;;;5012689;28;20216;-75
2022/05/07 12:31:05;;;;;;;0.80;0.80;;;29.00;39.30;;;;;;5012801;28;20192;-74
2022/05/07 12:33:32;;;;;;;2.10;0.65;;;29.20;40.00;;;;;;5013932;28;20189;-73
2022/05/07 12:35:59;;;;;;;2.05;0.98;;;29.40;41.50;;;;;;5026945;28;20248;-74
2022/05/07 12:38:25;;;;;;;0.52;0.52;;;29.50;38.90;;;;;;5008466;28;20220;-74
2022/05/07 12:40:50;;;;;;;0.57;0.57;;;29.70;36.70;;;;;;5003869;28;20204;-73
2022/05/07 12:43:16;;;;;;;0.90;0.90;;;30.10;37.70;;;;;;5007760;28;20192;-74
2022/05/07 12:45:43;;;;;;;0.68;0.68;;;30.10;36.80;;;;;;5010965;28;20200;-73
2022/05/07 12:48:09;;;;;;;1.42;0.73;;;30.00;36.60;;;;;;5011839;28;20242;-73
2022/05/07 12:50:34;;;;;;;1.58;0.82;;;29.70;36.20;;;;;;5012482;28;20881;-73
2022/05/07 12:53:00;;;;;;;3.50;1.00;;;29.60;37.60;;;;;;5014468;28;20306;-73
2022/05/07 12:55:26;;;;;;;2.38;0.63;;;29.60;39.90;;;;;;5014045;28;20189;-73
2022/05/07 12:57:52;;;;;;;1.30;0.88;;;29.90;40.30;;;;;;5015348;28;20250;-73
2022/05/07 13:00:18;;;;;;;0.70;0.70;;;30.00;38.70;;;;;;5016667;28;20184;-73
2022/05/07 13:02:43;;;;;;;0.93;0.93;;;30.20;37.40;;;;;;5018504;28;20196;-73
2022/05/07 13:05:09;;;;;;;0.93;0.93;;;30.40;39.40;;;;;;5019889;28;20184;-73
2022/05/07 13:07:35;;;;;;;0.90;0.90;;;30.60;38.40;;;;;;5013308;28;20184;-73
2022/05/07 13:10:01;;;;;;;1.25;1.15;;;30.60;37.60;;;;;;5018117;28;20192;-73
2022/05/07 13:12:27;;;;;;;0.75;0.75;;;30.30;38.30;;;;;;5014713;28;20200;-73
2022/05/07 13:14:55;;;;;;;1.00;1.00;;;30.30;37.70;;;;;;5014721;28;20177;-73
2022/05/07 13:17:21;;;;;;;0.80;0.80;;;29.60;39.00;;;;;;5014132;28;20335;-72
2022/05/07 13:19:47;;;;;;;1.35;1.25;;;29.40;39.70;;;;;;5013003;28;20217;-74
2022/05/07 13:22:12;;;;;;;0.98;0.90;;;29.50;40.10;;;;;;5016877;28;20273;-74
2022/05/07 13:24:38;;;;;;;2.75;1.00;;;29.50;40.20;;;;;;5012501;28;20196;-74